sensor_id;sensor_type;location;lat;lon;timestamp;pressure;altitude;pressure_sealevel;temperature
63220;BMP180;49320;52.512;13.448;2022-08-06T00:00:01;101638.00;;;23.20
63220;BMP180;49320;52.512;13.448;2022-08-06T00:02:35;101643.00;;;23.20
63220;BMP180;49320;52.512;13.448;2022-08-06T00:05:03;101660.00;;;23.20
63220;BMP180;49320;52.512;13.448;2022-08-06T00:07:33;101674.00;;;23.20
63220;BMP180;49320;52.512;13.448;2022-08-06T00:10:16;101678.00;;;23.20
63220;BMP180;49320;52.512;13.448;2022-08-06T00:12:43;101675.00;;;23.20
63220;BMP180;49320;52.512;13.448;2022-08-06T00:15:12;101690.00;;;23.20
63220;BMP180;49320;52.512;13.448;2022-08-06T00:17:44;101696.00;;;23.20
63220;BMP180;49320;52.512;13.448;2022-08-06T00:20:14;101701.00;;;23.20
63220;BMP180;49320;52.512;13.448;2022-08-06T00:22:58;101707.00;;;23.10
63220;BMP180;49320;52.512;13.448;2022-08-06T00:26:04;101694.00;;;23.00
63220;BMP180;49320;52.512;13.448;2022-08-06T00:33:57;101703.00;;;22.90
63220;BMP180;49320;52.512;13.448;2022-08-06T00:37:46;101705.00;;;22.80
63220;BMP180;49320;52.512;13.448;2022-08-06T00:41:31;101689.00;;;22.70
63220;BMP180;49320;52.512;13.448;2022-08-06T01:01:50;101701.00;;;22.30
63220;BMP180;49320;52.512;13.448;2022-08-06T01:33:00;101720.00;;;21.90
63220;BMP180;49320;52.512;13.448;2022-08-06T01:50:05;101720.00;;;21.70
63220;BMP180;49320;52.512;13.448;2022-08-06T02:15:56;101729.00;;;21.50
63220;BMP180;49320;52.512;13.448;2022-08-06T02:29:02;101748.00;;;21.30
63220;BMP180;49320;52.512;13.448;2022-08-06T02:37:14;101743.00;;;21.20
63220;BMP180;49320;52.512;13.448;2022-08-06T02:49:28;101765.00;;;21.00
63220;BMP180;49320;52.512;13.448;2022-08-06T03:42:50;101848.00;;;20.80
63220;BMP180;49320;52.512;13.448;2022-08-06T04:08:03;101873.00;;;20.70
63220;BMP180;49320;52.512;13.448;2022-08-06T04:16:46;101887.00;;;20.70
63220;BMP180;49320;52.512;13.448;2022-08-06T04:24:35;101880.00;;;20.70
63220;BMP180;49320;52.512;13.448;2022-08-06T04:28:10;101896.00;;;20.70
63220;BMP180;49320;52.512;13.448;2022-08-06T04:30:40;101903.00;;;20.80
63220;BMP180;49320;52.512;13.448;2022-08-06T04:33:20;101910.00;;;20.80
63220;BMP180;49320;52.512;13.448;2022-08-06T04:36:04;101912.00;;;20.90
63220;BMP180;49320;52.512;13.448;2022-08-06T04:38:45;101917.00;;;20.90
63220;BMP180;49320;52.512;13.448;2022-08-06T04:41:17;101916.00;;;20.90
63220;BMP180;49320;52.512;13.448;2022-08-06T04:43:46;101922.00;;;21.00
63220;BMP180;49320;52.512;13.448;2022-08-06T04:46:20;101931.00;;;21.00
63220;BMP180;49320;52.512;13.448;2022-08-06T04:48:48;101934.00;;;21.00
63220;BMP180;49320;52.512;13.448;2022-08-06T04:51:23;101941.00;;;21.10
63220;BMP180;49320;52.512;13.448;2022-08-06T04:54:10;101944.00;;;21.10
63220;BMP180;49320;52.512;13.448;2022-08-06T04:56:39;101941.00;;;21.20
63220;BMP180;49320;52.512;13.448;2022-08-06T04:59:08;101952.00;;;21.20
63220;BMP180;49320;52.512;13.448;2022-08-06T05:01:36;101949.00;;;21.20
63220;BMP180;49320;52.512;13.448;2022-08-06T05:04:19;101947.00;;;21.20
63220;BMP180;49320;52.512;13.448;2022-08-06T05:07:20;101961.00;;;21.30
63220;BMP180;49320;52.512;13.448;2022-08-06T05:09:48;101953.00;;;21.30
63220;BMP180;49320;52.512;13.448;2022-08-06T05:12:27;101952.00;;;21.30
63220;BMP180;49320;52.512;13.448;2022-08-06T05:15:09;101964.00;;;21.20
63220;BMP180;49320;52.512;13.448;2022-08-06T05:17:43;101978.00;;;21.20
63220;BMP180;49320;52.512;13.448;2022-08-06T05:20:19;101975.00;;;21.20
63220;BMP180;49320;52.512;13.448;2022-08-06T05:23:04;101979.00;;;21.30
63220;BMP180;49320;52.512;13.448;2022-08-06T05:25:46;101987.00;;;21.30
63220;BMP180;49320;52.512;13.448;2022-08-06T05:28:22;101999.00;;;21.30
63220;BMP180;49320;52.512;13.448;2022-08-06T05:30:54;102000.00;;;21.30
63220;BMP180;49320;52.512;13.448;2022-08-06T05:33:29;101996.00;;;21.30
63220;BMP180;49320;52.512;13.448;2022-08-06T05:36:06;102003.00;;;21.40
63220;BMP180;49320;52.512;13.448;2022-08-06T05:38:40;101996.00;;;21.40
63220;BMP180;49320;52.512;13.448;2022-08-06T05:41:24;102013.00;;;21.50
63220;BMP180;49320;52.512;13.448;2022-08-06T05:43:56;101999.00;;;21.50
63220;BMP180;49320;52.512;13.448;2022-08-06T05:46:40;102004.00;;;21.50
63220;BMP180;49320;52.512;13.448;2022-08-06T05:49:33;102005.00;;;21.40
63220;BMP180;49320;52.512;13.448;2022-08-06T05:52:36;102011.00;;;21.50
63220;BMP180;49320;52.512;13.448;2022-08-06T05:55:16;102013.00;;;21.60
63220;BMP180;49320;52.512;13.448;2022-08-06T05:58:00;102022.00;;;21.80
63220;BMP180;49320;52.512;13.448;2022-08-06T06:00:31;102027.00;;;21.90
63220;BMP180;49320;52.512;13.448;2022-08-06T06:03:12;102023.00;;;22.00
63220;BMP180;49320;52.512;13.448;2022-08-06T06:06:01;102023.00;;;22.10
63220;BMP180;49320;52.512;13.448;2022-08-06T06:08:44;102040.00;;;22.20
63220;BMP180;49320;52.512;13.448;2022-08-06T06:11:25;102039.00;;;22.30
63220;BMP180;49320;52.512;13.448;2022-08-06T06:14:37;102037.00;;;22.50
63220;BMP180;49320;52.512;13.448;2022-08-06T06:20:29;102031.00;;;22.60
63220;BMP180;49320;52.512;13.448;2022-08-06T06:23:42;102037.00;;;22.70
63220;BMP180;49320;52.512;13.448;2022-08-06T06:26:48;102027.00;;;22.70
63220;BMP180;49320;52.512;13.448;2022-08-06T06:29:33;102038.00;;;22.80
63220;BMP180;49320;52.512;13.448;2022-08-06T06:32:41;102045.00;;;22.90
63220;BMP180;49320;52.512;13.448;2022-08-06T06:35:41;102043.00;;;23.00
63220;BMP180;49320;52.512;13.448;2022-08-06T06:38:55;102048.00;;;23.00
63220;BMP180;49320;52.512;13.448;2022-08-06T06:41:45;102049.00;;;22.90
63220;BMP180;49320;52.512;13.448;2022-08-06T06:44:44;102058.00;;;22.90
63220;BMP180;49320;52.512;13.448;2022-08-06T06:48:00;102062.00;;;22.90
63220;BMP180;49320;52.512;13.448;2022-08-06T06:50:41;102066.00;;;23.00
63220;BMP180;49320;52.512;13.448;2022-08-06T06:53:15;102059.00;;;23.00
63220;BMP180;49320;52.512;13.448;2022-08-06T06:55:53;102069.00;;;23.10
63220;BMP180;49320;52.512;13.448;2022-08-06T06:59:07;102075.00;;;23.10
63220;BMP180;49320;52.512;13.448;2022-08-06T07:01:46;102065.00;;;23.20
63220;BMP180;49320;52.512;13.448;2022-08-06T07:04:23;102065.00;;;23.20
63220;BMP180;49320;52.512;13.448;2022-08-06T07:06:56;102071.00;;;23.30
63220;BMP180;49320;52.512;13.448;2022-08-06T07:09:41;102079.00;;;23.40
63220;BMP180;49320;52.512;13.448;2022-08-06T07:12:28;102074.00;;;23.40
63220;BMP180;49320;52.512;13.448;2022-08-06T07:15:02;102076.00;;;23.40
63220;BMP180;49320;52.512;13.448;2022-08-06T07:17:33;102076.00;;;23.50
63220;BMP180;49320;52.512;13.448;2022-08-06T07:20:20;102081.00;;;23.50
63220;BMP180;49320;52.512;13.448;2022-08-06T07:22:57;102080.00;;;23.50
63220;BMP180;49320;52.512;13.448;2022-08-06T07:25:47;102083.00;;;23.60
63220;BMP180;49320;52.512;13.448;2022-08-06T07:28:23;102091.00;;;23.60
63220;BMP180;49320;52.512;13.448;2022-08-06T07:31:00;102096.00;;;23.70
63220;BMP180;49320;52.512;13.448;2022-08-06T07:33:39;102086.00;;;23.80
63220;BMP180;49320;52.512;13.448;2022-08-06T07:36:09;102094.00;;;23.90
63220;BMP180;49320;52.512;13.448;2022-08-06T07:38:44;102094.00;;;24.00
63220;BMP180;49320;52.512;13.448;2022-08-06T07:41:14;102098.00;;;24.10
63220;BMP180;49320;52.512;13.448;2022-08-06T07:43:59;102105.00;;;24.30
63220;BMP180;49320;52.512;13.448;2022-08-06T07:46:37;102093.00;;;24.40
63220;BMP180;49320;52.512;13.448;2022-08-06T07:49:13;102108.00;;;24.50
63220;BMP180;49320;52.512;13.448;2022-08-06T07:51:45;102101.00;;;24.50
63220;BMP180;49320;52.512;13.448;2022-08-06T07:54:16;102118.00;;;24.60
63220;BMP180;49320;52.512;13.448;2022-08-06T07:57:00;102103.00;;;24.60
63220;BMP180;49320;52.512;13.448;2022-08-06T07:59:29;102109.00;;;24.70
63220;BMP180;49320;52.512;13.448;2022-08-06T08:01:58;102108.00;;;24.80
63220;BMP180;49320;52.512;13.448;2022-08-06T08:04:30;102116.00;;;24.80
63220;BMP180;49320;52.512;13.448;2022-08-06T08:07:23;102113.00;;;24.80
63220;BMP180;49320;52.512;13.448;2022-08-06T08:10:11;102129.00;;;24.70
63220;BMP180;49320;52.512;13.448;2022-08-06T08:12:43;102136.00;;;24.70
63220;BMP180;49320;52.512;13.448;2022-08-06T08:15:19;102115.00;;;24.70
63220;BMP180;49320;52.512;13.448;2022-08-06T08:17:49;102131.00;;;24.70
63220;BMP180;49320;52.512;13.448;2022-08-06T08:20:27;102137.00;;;24.80
63220;BMP180;49320;52.512;13.448;2022-08-06T08:23:05;102128.00;;;24.90
63220;BMP180;49320;52.512;13.448;2022-08-06T08:25:34;102129.00;;;25.00
63220;BMP180;49320;52.512;13.448;2022-08-06T08:28:10;102132.00;;;25.00
63220;BMP180;49320;52.512;13.448;2022-08-06T08:30:44;102133.00;;;25.10
63220;BMP180;49320;52.512;13.448;2022-08-06T08:33:18;102132.00;;;25.10
63220;BMP180;49320;52.512;13.448;2022-08-06T08:35:48;102131.00;;;25.10
63220;BMP180;49320;52.512;13.448;2022-08-06T08:38:33;102128.00;;;25.20
63220;BMP180;49320;52.512;13.448;2022-08-06T08:41:13;102135.00;;;25.30
63220;BMP180;49320;52.512;13.448;2022-08-06T08:44:11;102140.00;;;25.50
63220;BMP180;49320;52.512;13.448;2022-08-06T08:46:41;102132.00;;;25.60
63220;BMP180;49320;52.512;13.448;2022-08-06T08:49:46;102129.00;;;25.60
63220;BMP180;49320;52.512;13.448;2022-08-06T08:52:18;102130.00;;;25.70
63220;BMP180;49320;52.512;13.448;2022-08-06T08:54:52;102139.00;;;25.80
63220;BMP180;49320;52.512;13.448;2022-08-06T08:57:22;102135.00;;;25.80
63220;BMP180;49320;52.512;13.448;2022-08-06T09:00:10;102136.00;;;25.80
63220;BMP180;49320;52.512;13.448;2022-08-06T09:02:41;102131.00;;;25.80
63220;BMP180;49320;52.512;13.448;2022-08-06T09:05:17;102121.00;;;25.80
63220;BMP180;49320;52.512;13.448;2022-08-06T09:07:45;102133.00;;;25.80
63220;BMP180;49320;52.512;13.448;2022-08-06T09:10:28;102132.00;;;25.80
63220;BMP180;49320;52.512;13.448;2022-08-06T09:13:02;102138.00;;;25.90
63220;BMP180;49320;52.512;13.448;2022-08-06T09:15:48;102127.00;;;25.90
63220;BMP180;49320;52.512;13.448;2022-08-06T09:18:19;102131.00;;;25.90
63220;BMP180;49320;52.512;13.448;2022-08-06T09:20:54;102130.00;;;25.90
63220;BMP180;49320;52.512;13.448;2022-08-06T09:23:23;102130.00;;;26.00
63220;BMP180;49320;52.512;13.448;2022-08-06T09:25:55;102137.00;;;26.00
63220;BMP180;49320;52.512;13.448;2022-08-06T09:28:36;102144.00;;;26.10
63220;BMP180;49320;52.512;13.448;2022-08-06T09:31:11;102138.00;;;26.10
63220;BMP180;49320;52.512;13.448;2022-08-06T09:34:04;102154.00;;;26.20
63220;BMP180;49320;52.512;13.448;2022-08-06T09:36:52;102136.00;;;26.30
63220;BMP180;49320;52.512;13.448;2022-08-06T09:39:38;102147.00;;;26.50
63220;BMP180;49320;52.512;13.448;2022-08-06T09:42:45;102143.00;;;26.70
63220;BMP180;49320;52.512;13.448;2022-08-06T09:45:16;102149.00;;;26.90
63220;BMP180;49320;52.512;13.448;2022-08-06T09:47:58;102162.00;;;27.00
63220;BMP180;49320;52.512;13.448;2022-08-06T09:50:43;102158.00;;;26.90
63220;BMP180;49320;52.512;13.448;2022-08-06T09:53:14;102159.00;;;26.90
63220;BMP180;49320;52.512;13.448;2022-08-06T09:55:50;102157.00;;;26.80
63220;BMP180;49320;52.512;13.448;2022-08-06T09:58:35;102162.00;;;26.80
63220;BMP180;49320;52.512;13.448;2022-08-06T10:01:20;102165.00;;;26.70
63220;BMP180;49320;52.512;13.448;2022-08-06T10:03:51;102150.00;;;26.70
63220;BMP180;49320;52.512;13.448;2022-08-06T10:06:31;102148.00;;;26.70
63220;BMP180;49320;52.512;13.448;2022-08-06T10:09:09;102156.00;;;26.70
63220;BMP180;49320;52.512;13.448;2022-08-06T10:11:46;102159.00;;;26.60
63220;BMP180;49320;52.512;13.448;2022-08-06T10:14:30;102155.00;;;26.70
63220;BMP180;49320;52.512;13.448;2022-08-06T10:17:16;102157.00;;;26.70
63220;BMP180;49320;52.512;13.448;2022-08-06T10:20:08;102167.00;;;26.80
63220;BMP180;49320;52.512;13.448;2022-08-06T10:22:35;102153.00;;;26.80
63220;BMP180;49320;52.512;13.448;2022-08-06T10:25:07;102159.00;;;26.80
63220;BMP180;49320;52.512;13.448;2022-08-06T10:27:39;102159.00;;;26.80
63220;BMP180;49320;52.512;13.448;2022-08-06T10:30:09;102157.00;;;26.80
63220;BMP180;49320;52.512;13.448;2022-08-06T10:32:43;102161.00;;;26.90
63220;BMP180;49320;52.512;13.448;2022-08-06T10:35:16;102156.00;;;27.00
63220;BMP180;49320;52.512;13.448;2022-08-06T10:38:01;102168.00;;;27.10
63220;BMP180;49320;52.512;13.448;2022-08-06T10:40:43;102164.00;;;27.20
63220;BMP180;49320;52.512;13.448;2022-08-06T10:43:27;102161.00;;;27.20
63220;BMP180;49320;52.512;13.448;2022-08-06T10:46:05;102167.00;;;27.20
63220;BMP180;49320;52.512;13.448;2022-08-06T10:48:38;102167.00;;;27.20
63220;BMP180;49320;52.512;13.448;2022-08-06T10:51:26;102158.00;;;27.30
63220;BMP180;49320;52.512;13.448;2022-08-06T10:54:14;102153.00;;;27.40
63220;BMP180;49320;52.512;13.448;2022-08-06T10:56:46;102164.00;;;27.50
63220;BMP180;49320;52.512;13.448;2022-08-06T10:59:14;102156.00;;;27.60
63220;BMP180;49320;52.512;13.448;2022-08-06T11:02:08;102151.00;;;27.60
63220;BMP180;49320;52.512;13.448;2022-08-06T11:05:00;102151.00;;;27.60
63220;BMP180;49320;52.512;13.448;2022-08-06T11:08:38;102158.00;;;27.40
63220;BMP180;49320;52.512;13.448;2022-08-06T11:11:56;102158.00;;;27.30
63220;BMP180;49320;52.512;13.448;2022-08-06T11:14:36;102148.00;;;27.30
63220;BMP180;49320;52.512;13.448;2022-08-06T11:17:05;102152.00;;;27.40
63220;BMP180;49320;52.512;13.448;2022-08-06T11:19:47;102136.00;;;27.50
63220;BMP180;49320;52.512;13.448;2022-08-06T11:22:38;102138.00;;;27.60
63220;BMP180;49320;52.512;13.448;2022-08-06T11:25:47;102146.00;;;27.80
63220;BMP180;49320;52.512;13.448;2022-08-06T11:29:04;102137.00;;;27.80
63220;BMP180;49320;52.512;13.448;2022-08-06T11:31:07;102140.00;;;27.70
63220;BMP180;49320;52.512;13.448;2022-08-06T11:36:27;102142.00;;;27.80
63220;BMP180;49320;52.512;13.448;2022-08-06T11:41:34;102135.00;;;27.80
63220;BMP180;49320;52.512;13.448;2022-08-06T11:44:29;102134.00;;;27.80
63220;BMP180;49320;52.512;13.448;2022-08-06T11:47:12;102129.00;;;27.80
63220;BMP180;49320;52.512;13.448;2022-08-06T11:49:45;102136.00;;;27.80
63220;BMP180;49320;52.512;13.448;2022-08-06T11:52:37;102144.00;;;27.80
63220;BMP180;49320;52.512;13.448;2022-08-06T11:55:11;102135.00;;;27.80
63220;BMP180;49320;52.512;13.448;2022-08-06T12:01:01;102137.00;;;27.70
63220;BMP180;49320;52.512;13.448;2022-08-06T12:03:49;102130.00;;;27.80
63220;BMP180;49320;52.512;13.448;2022-08-06T12:06:26;102120.00;;;28.00
63220;BMP180;49320;52.512;13.448;2022-08-06T12:09:10;102126.00;;;28.10
63220;BMP180;49320;52.512;13.448;2022-08-06T12:14:53;102134.00;;;28.50
63220;BMP180;49320;52.512;13.448;2022-08-06T12:17:28;102136.00;;;28.60
63220;BMP180;49320;52.512;13.448;2022-08-06T12:20:15;102132.00;;;28.60
63220;BMP180;49320;52.512;13.448;2022-08-06T12:23:16;102118.00;;;28.70
63220;BMP180;49320;52.512;13.448;2022-08-06T12:25:48;102118.00;;;28.80
63220;BMP180;49320;52.512;13.448;2022-08-06T12:28:17;102125.00;;;28.80
63220;BMP180;49320;52.512;13.448;2022-08-06T12:30:53;102122.00;;;28.90
63220;BMP180;49320;52.512;13.448;2022-08-06T12:33:21;102128.00;;;29.00
63220;BMP180;49320;52.512;13.448;2022-08-06T12:35:54;102125.00;;;29.10
63220;BMP180;49320;52.512;13.448;2022-08-06T12:38:28;102111.00;;;29.10
63220;BMP180;49320;52.512;13.448;2022-08-06T12:41:03;102126.00;;;29.00
63220;BMP180;49320;52.512;13.448;2022-08-06T12:43:42;102132.00;;;29.00
63220;BMP180;49320;52.512;13.448;2022-08-06T12:46:24;102133.00;;;29.00
63220;BMP180;49320;52.512;13.448;2022-08-06T12:48:58;102121.00;;;29.00
63220;BMP180;49320;52.512;13.448;2022-08-06T12:51:29;102117.00;;;28.90
63220;BMP180;49320;52.512;13.448;2022-08-06T12:54:05;102118.00;;;28.80
63220;BMP180;49320;52.512;13.448;2022-08-06T12:56:39;102139.00;;;28.70
63220;BMP180;49320;52.512;13.448;2022-08-06T12:59:11;102115.00;;;28.70
63220;BMP180;49320;52.512;13.448;2022-08-06T13:01:48;102126.00;;;28.60
63220;BMP180;49320;52.512;13.448;2022-08-06T13:04:35;102113.00;;;28.60
63220;BMP180;49320;52.512;13.448;2022-08-06T13:07:05;102119.00;;;28.50
63220;BMP180;49320;52.512;13.448;2022-08-06T13:09:34;102117.00;;;28.50
63220;BMP180;49320;52.512;13.448;2022-08-06T13:12:18;102112.00;;;28.40
63220;BMP180;49320;52.512;13.448;2022-08-06T13:15:14;102122.00;;;28.40
63220;BMP180;49320;52.512;13.448;2022-08-06T13:18:16;102130.00;;;28.40
63220;BMP180;49320;52.512;13.448;2022-08-06T13:21:14;102116.00;;;28.30
63220;BMP180;49320;52.512;13.448;2022-08-06T13:23:48;102129.00;;;28.40
63220;BMP180;49320;52.512;13.448;2022-08-06T13:26:24;102118.00;;;28.40
63220;BMP180;49320;52.512;13.448;2022-08-06T13:29:23;102130.00;;;28.30
63220;BMP180;49320;52.512;13.448;2022-08-06T13:32:11;102111.00;;;28.20
63220;BMP180;49320;52.512;13.448;2022-08-06T13:35:01;102119.00;;;28.20
63220;BMP180;49320;52.512;13.448;2022-08-06T13:37:47;102119.00;;;28.20
63220;BMP180;49320;52.512;13.448;2022-08-06T13:40:47;102116.00;;;28.20
63220;BMP180;49320;52.512;13.448;2022-08-06T13:43:43;102100.00;;;28.30
63220;BMP180;49320;52.512;13.448;2022-08-06T13:46:27;102100.00;;;28.30
63220;BMP180;49320;52.512;13.448;2022-08-06T13:49:00;102113.00;;;28.40
63220;BMP180;49320;52.512;13.448;2022-08-06T13:51:37;102118.00;;;28.40
63220;BMP180;49320;52.512;13.448;2022-08-06T13:54:23;102118.00;;;28.40
63220;BMP180;49320;52.512;13.448;2022-08-06T13:56:52;102114.00;;;28.40
63220;BMP180;49320;52.512;13.448;2022-08-06T13:59:25;102114.00;;;28.40
63220;BMP180;49320;52.512;13.448;2022-08-06T14:02:09;102114.00;;;28.40
63220;BMP180;49320;52.512;13.448;2022-08-06T14:04:38;102127.00;;;28.30
63220;BMP180;49320;52.512;13.448;2022-08-06T14:07:06;102118.00;;;28.30
63220;BMP180;49320;52.512;13.448;2022-08-06T14:09:33;102114.00;;;28.20
63220;BMP180;49320;52.512;13.448;2022-08-06T14:12:21;102120.00;;;28.10
63220;BMP180;49320;52.512;13.448;2022-08-06T14:14:55;102128.00;;;28.10
63220;BMP180;49320;52.512;13.448;2022-08-06T14:17:22;102126.00;;;28.10
63220;BMP180;49320;52.512;13.448;2022-08-06T14:20:01;102112.00;;;28.10
63220;BMP180;49320;52.512;13.448;2022-08-06T14:22:45;102129.00;;;28.00
63220;BMP180;49320;52.512;13.448;2022-08-06T14:25:15;102114.00;;;28.00
63220;BMP180;49320;52.512;13.448;2022-08-06T14:27:42;102111.00;;;27.90
63220;BMP180;49320;52.512;13.448;2022-08-06T14:30:12;102118.00;;;27.90
63220;BMP180;49320;52.512;13.448;2022-08-06T14:32:59;102107.00;;;27.90
63220;BMP180;49320;52.512;13.448;2022-08-06T14:35:37;102102.00;;;27.80
63220;BMP180;49320;52.512;13.448;2022-08-06T14:38:17;102106.00;;;27.80
63220;BMP180;49320;52.512;13.448;2022-08-06T14:40:44;102106.00;;;27.80
63220;BMP180;49320;52.512;13.448;2022-08-06T14:43:30;102103.00;;;27.80
63220;BMP180;49320;52.512;13.448;2022-08-06T14:46:29;102102.00;;;27.80
63220;BMP180;49320;52.512;13.448;2022-08-06T14:48:59;102091.00;;;27.80
63220;BMP180;49320;52.512;13.448;2022-08-06T14:51:39;102098.00;;;27.80
63220;BMP180;49320;52.512;13.448;2022-08-06T14:54:26;102103.00;;;27.90
63220;BMP180;49320;52.512;13.448;2022-08-06T14:57:06;102106.00;;;27.90
63220;BMP180;49320;52.512;13.448;2022-08-06T14:59:43;102102.00;;;27.80
63220;BMP180;49320;52.512;13.448;2022-08-06T15:02:20;102109.00;;;27.80
63220;BMP180;49320;52.512;13.448;2022-08-06T15:04:52;102101.00;;;27.70
63220;BMP180;49320;52.512;13.448;2022-08-06T15:07:20;102097.00;;;27.70
63220;BMP180;49320;52.512;13.448;2022-08-06T15:10:09;102094.00;;;27.60
63220;BMP180;49320;52.512;13.448;2022-08-06T15:12:53;102094.00;;;27.60
63220;BMP180;49320;52.512;13.448;2022-08-06T15:15:30;102099.00;;;27.60
63220;BMP180;49320;52.512;13.448;2022-08-06T15:18:15;102090.00;;;27.70
63220;BMP180;49320;52.512;13.448;2022-08-06T15:21:03;102086.00;;;27.80
63220;BMP180;49320;52.512;13.448;2022-08-06T15:23:36;102099.00;;;27.90
63220;BMP180;49320;52.512;13.448;2022-08-06T15:26:21;102094.00;;;28.00
63220;BMP180;49320;52.512;13.448;2022-08-06T15:29:09;102083.00;;;28.00
63220;BMP180;49320;52.512;13.448;2022-08-06T15:31:44;102076.00;;;28.10
63220;BMP180;49320;52.512;13.448;2022-08-06T15:34:13;102089.00;;;28.10
63220;BMP180;49320;52.512;13.448;2022-08-06T15:36:46;102077.00;;;28.20
63220;BMP180;49320;52.512;13.448;2022-08-06T15:39:31;102084.00;;;28.20
63220;BMP180;49320;52.512;13.448;2022-08-06T15:42:19;102082.00;;;28.30
63220;BMP180;49320;52.512;13.448;2022-08-06T15:44:48;102082.00;;;28.40
63220;BMP180;49320;52.512;13.448;2022-08-06T15:47:15;102080.00;;;28.40
63220;BMP180;49320;52.512;13.448;2022-08-06T15:49:42;102080.00;;;28.40
63220;BMP180;49320;52.512;13.448;2022-08-06T15:52:28;102070.00;;;28.40
63220;BMP180;49320;52.512;13.448;2022-08-06T15:55:03;102083.00;;;28.40
63220;BMP180;49320;52.512;13.448;2022-08-06T15:57:44;102072.00;;;28.50
63220;BMP180;49320;52.512;13.448;2022-08-06T16:00:38;102075.00;;;28.50
63220;BMP180;49320;52.512;13.448;2022-08-06T16:03:25;102077.00;;;28.50
63220;BMP180;49320;52.512;13.448;2022-08-06T16:05:53;102074.00;;;28.50
63220;BMP180;49320;52.512;13.448;2022-08-06T16:08:36;102062.00;;;28.50
63220;BMP180;49320;52.512;13.448;2022-08-06T16:11:13;102065.00;;;28.50
63220;BMP180;49320;52.512;13.448;2022-08-06T16:13:42;102073.00;;;28.60
63220;BMP180;49320;52.512;13.448;2022-08-06T16:16:21;102072.00;;;28.50
63220;BMP180;49320;52.512;13.448;2022-08-06T16:18:59;102075.00;;;28.50
63220;BMP180;49320;52.512;13.448;2022-08-06T16:21:29;102069.00;;;28.50
63220;BMP180;49320;52.512;13.448;2022-08-06T16:24:00;102059.00;;;28.50
63220;BMP180;49320;52.512;13.448;2022-08-06T16:26:29;102056.00;;;28.50
63220;BMP180;49320;52.512;13.448;2022-08-06T16:29:14;102068.00;;;28.60
63220;BMP180;49320;52.512;13.448;2022-08-06T16:31:43;102056.00;;;28.60
63220;BMP180;49320;52.512;13.448;2022-08-06T16:34:17;102058.00;;;28.60
63220;BMP180;49320;52.512;13.448;2022-08-06T16:36:58;102058.00;;;28.70
63220;BMP180;49320;52.512;13.448;2022-08-06T16:39:45;102059.00;;;28.70
63220;BMP180;49320;52.512;13.448;2022-08-06T16:42:27;102059.00;;;28.70
63220;BMP180;49320;52.512;13.448;2022-08-06T16:44:56;102056.00;;;28.70
63220;BMP180;49320;52.512;13.448;2022-08-06T16:47:35;102059.00;;;28.70
63220;BMP180;49320;52.512;13.448;2022-08-06T16:50:23;102058.00;;;28.70
63220;BMP180;49320;52.512;13.448;2022-08-06T16:52:53;102060.00;;;28.70
63220;BMP180;49320;52.512;13.448;2022-08-06T16:55:41;102061.00;;;28.70
63220;BMP180;49320;52.512;13.448;2022-08-06T16:58:09;102064.00;;;28.70
63220;BMP180;49320;52.512;13.448;2022-08-06T17:00:56;102074.00;;;28.70
63220;BMP180;49320;52.512;13.448;2022-08-06T17:03:42;102068.00;;;28.70
63220;BMP180;49320;52.512;13.448;2022-08-06T17:06:30;102065.00;;;28.70
63220;BMP180;49320;52.512;13.448;2022-08-06T17:09:04;102057.00;;;28.80
63220;BMP180;49320;52.512;13.448;2022-08-06T17:11:53;102073.00;;;28.80
63220;BMP180;49320;52.512;13.448;2022-08-06T17:14:28;102081.00;;;28.80
63220;BMP180;49320;52.512;13.448;2022-08-06T17:17:01;102084.00;;;28.80
63220;BMP180;49320;52.512;13.448;2022-08-06T17:19:34;102076.00;;;28.80
63220;BMP180;49320;52.512;13.448;2022-08-06T17:22:21;102082.00;;;28.90
63220;BMP180;49320;52.512;13.448;2022-08-06T17:24:56;102079.00;;;29.00
63220;BMP180;49320;52.512;13.448;2022-08-06T17:27:23;102084.00;;;29.00
63220;BMP180;49320;52.512;13.448;2022-08-06T17:30:13;102069.00;;;29.10
63220;BMP180;49320;52.512;13.448;2022-08-06T17:32:44;102070.00;;;29.10
63220;BMP180;49320;52.512;13.448;2022-08-06T17:35:15;102082.00;;;29.20
63220;BMP180;49320;52.512;13.448;2022-08-06T17:37:46;102081.00;;;29.20
63220;BMP180;49320;52.512;13.448;2022-08-06T17:40:24;102084.00;;;29.30
63220;BMP180;49320;52.512;13.448;2022-08-06T17:43:11;102082.00;;;29.40
63220;BMP180;49320;52.512;13.448;2022-08-06T17:45:58;102084.00;;;29.40
63220;BMP180;49320;52.512;13.448;2022-08-06T17:48:45;102090.00;;;29.30
63220;BMP180;49320;52.512;13.448;2022-08-06T17:51:14;102086.00;;;29.20
63220;BMP180;49320;52.512;13.448;2022-08-06T17:53:49;102094.00;;;29.10
63220;BMP180;49320;52.512;13.448;2022-08-06T17:56:23;102084.00;;;28.90
63220;BMP180;49320;52.512;13.448;2022-08-06T17:59:04;102100.00;;;28.80
63220;BMP180;49320;52.512;13.448;2022-08-06T18:01:46;102085.00;;;28.70
63220;BMP180;49320;52.512;13.448;2022-08-06T18:04:19;102087.00;;;28.60
63220;BMP180;49320;52.512;13.448;2022-08-06T18:06:48;102091.00;;;28.60
63220;BMP180;49320;52.512;13.448;2022-08-06T18:09:16;102088.00;;;28.50
63220;BMP180;49320;52.512;13.448;2022-08-06T18:12:03;102098.00;;;28.40
63220;BMP180;49320;52.512;13.448;2022-08-06T18:14:35;102092.00;;;28.30
63220;BMP180;49320;52.512;13.448;2022-08-06T18:17:02;102093.00;;;28.20
63220;BMP180;49320;52.512;13.448;2022-08-06T18:19:32;102091.00;;;28.10
63220;BMP180;49320;52.512;13.448;2022-08-06T18:22:03;102097.00;;;28.10
63220;BMP180;49320;52.512;13.448;2022-08-06T18:24:50;102104.00;;;28.00
63220;BMP180;49320;52.512;13.448;2022-08-06T18:27:19;102100.00;;;27.90
63220;BMP180;49320;52.512;13.448;2022-08-06T18:30:18;102106.00;;;27.90